Franconia, New Hampshire
Current Conditions -  °F | °C
As of 12:52 AM on Sunday 23 Nov 2014 (Local Time) from KHIE Reporting Station
Overcast Overcast  
Wind Chill:   Ceiling: 2300
Heat Index:   Visibility: 10mi
Dew Point: -2°   Wind: 0mph
Humidity: 70%   Direction: NA
Pressure: 29.92"   Gusts: NA
Location:  44.23°N, 71.75°W
Report Text: KHIE 230552Z AUTO 00000KT 10SM OVC023 03/M02 A2992 RMK AO2 SLP145 T00331017 10044 20028 50001
Loading
Personal Weather Stations






























Interactive Weather Map New forecast layout! Learn more

10-Day Weather Forecast

Advertisements
Track Severe Weather on mobile